sensor_id;sensor_type;location;lat;lon;timestamp;pressure;altitude;pressure_sealevel;temperature;humidity
48156;BME280;35568;48.104;11.782;2023-11-21T00:00:53;94899.85;;;7.35;49.35
48156;BME280;35568;48.104;11.782;2023-11-21T00:03:20;94899.60;;;7.67;49.05
48156;BME280;35568;48.104;11.782;2023-11-21T00:05:47;94896.49;;;7.71;48.91
48156;BME280;35568;48.104;11.782;2023-11-21T00:08:15;94896.89;;;7.77;48.95
48156;BME280;35568;48.104;11.782;2023-11-21T00:10:42;94895.13;;;7.93;48.82
48156;BME280;35568;48.104;11.782;2023-11-21T00:13:09;94896.92;;;8.01;48.80
48156;BME280;35568;48.104;11.782;2023-11-21T00:15:37;94892.37;;;7.98;48.54
48156;BME280;35568;48.104;11.782;2023-11-21T00:18:04;94893.14;;;7.72;48.88
48156;BME280;35568;48.104;11.782;2023-11-21T00:20:31;94887.81;;;7.84;49.15
48156;BME280;35568;48.104;11.782;2023-11-21T00:22:58;94887.75;;;7.97;49.62
48156;BME280;35568;48.104;11.782;2023-11-21T00:25:26;94891.49;;;7.86;49.52
48156;BME280;35568;48.104;11.782;2023-11-21T00:27:52;94883.94;;;8.14;50.01
48156;BME280;35568;48.104;11.782;2023-11-21T00:30:20;94884.80;;;7.77;50.30
48156;BME280;35568;48.104;11.782;2023-11-21T00:32:47;94878.66;;;7.92;50.50
48156;BME280;35568;48.104;11.782;2023-11-21T00:35:14;94870.58;;;7.85;50.94
48156;BME280;35568;48.104;11.782;2023-11-21T00:37:42;94867.41;;;7.70;51.02
48156;BME280;35568;48.104;11.782;2023-11-21T00:40:09;94866.58;;;7.76;50.88
48156;BME280;35568;48.104;11.782;2023-11-21T00:42:37;94866.00;;;7.92;50.97
48156;BME280;35568;48.104;11.782;2023-11-21T00:45:06;94865.32;;;7.72;51.31
48156;BME280;35568;48.104;11.782;2023-11-21T00:47:34;94862.21;;;7.92;51.08
48156;BME280;35568;48.104;11.782;2023-11-21T00:50:01;94865.20;;;7.72;50.87
48156;BME280;35568;48.104;11.782;2023-11-21T00:52:28;94863.56;;;7.79;51.01
48156;BME280;35568;48.104;11.782;2023-11-21T00:54:54;94862.83;;;8.00;50.89
48156;BME280;35568;48.104;11.782;2023-11-21T00:57:21;94863.89;;;8.09;50.88
48156;BME280;35568;48.104;11.782;2023-11-21T00:59:48;94859.67;;;7.99;50.73
48156;BME280;35568;48.104;11.782;2023-11-21T01:02:15;94856.24;;;8.38;50.64
48156;BME280;35568;48.104;11.782;2023-11-21T01:04:43;94859.84;;;8.38;50.46
48156;BME280;35568;48.104;11.782;2023-11-21T01:07:09;94857.44;;;8.55;50.55
48156;BME280;35568;48.104;11.782;2023-11-21T01:09:36;94859.21;;;8.39;50.43
48156;BME280;35568;48.104;11.782;2023-11-21T01:12:04;94856.26;;;8.07;50.82
48156;BME280;35568;48.104;11.782;2023-11-21T01:14:31;94853.42;;;7.84;51.31
48156;BME280;35568;48.104;11.782;2023-11-21T01:16:58;94849.81;;;7.74;51.20
48156;BME280;35568;48.104;11.782;2023-11-21T01:19:25;94847.84;;;7.86;51.55
48156;BME280;35568;48.104;11.782;2023-11-21T01:21:52;94849.03;;;7.74;51.51
48156;BME280;35568;48.104;11.782;2023-11-21T01:24:19;94846.16;;;7.74;51.66
48156;BME280;35568;48.104;11.782;2023-11-21T01:26:46;94847.05;;;7.81;51.51
48156;BME280;35568;48.104;11.782;2023-11-21T01:29:13;94847.24;;;7.69;51.33
48156;BME280;35568;48.104;11.782;2023-11-21T01:31:41;94847.98;;;7.50;51.50
48156;BME280;35568;48.104;11.782;2023-11-21T01:34:07;94846.49;;;7.45;51.59
48156;BME280;35568;48.104;11.782;2023-11-21T01:36:34;94847.59;;;7.51;51.41
48156;BME280;35568;48.104;11.782;2023-11-21T01:39:01;94846.89;;;7.42;51.54
48156;BME280;35568;48.104;11.782;2023-11-21T01:41:29;94847.11;;;7.26;51.71
48156;BME280;35568;48.104;11.782;2023-11-21T01:43:56;94845.76;;;7.17;51.75
48156;BME280;35568;48.104;11.782;2023-11-21T01:46:23;94846.32;;;7.31;51.31
48156;BME280;35568;48.104;11.782;2023-11-21T01:48:51;94844.78;;;7.20;51.54
48156;BME280;35568;48.104;11.782;2023-11-21T01:51:19;94845.16;;;7.31;51.41
48156;BME280;35568;48.104;11.782;2023-11-21T01:53:47;94839.03;;;7.20;51.47
48156;BME280;35568;48.104;11.782;2023-11-21T01:56:15;94843.07;;;7.28;51.44
48156;BME280;35568;48.104;11.782;2023-11-21T01:58:43;94841.22;;;7.22;51.40
48156;BME280;35568;48.104;11.782;2023-11-21T02:01:10;94837.98;;;7.27;51.18
48156;BME280;35568;48.104;11.782;2023-11-21T02:03:37;94839.37;;;6.98;51.46
48156;BME280;35568;48.104;11.782;2023-11-21T02:06:04;94838.49;;;7.31;51.45
48156;BME280;35568;48.104;11.782;2023-11-21T02:08:31;94837.32;;;7.39;51.29
48156;BME280;35568;48.104;11.782;2023-11-21T02:10:58;94837.84;;;7.31;51.29
48156;BME280;35568;48.104;11.782;2023-11-21T02:13:25;94837.31;;;7.18;51.46
48156;BME280;35568;48.104;11.782;2023-11-21T02:15:52;94837.80;;;7.43;51.13
48156;BME280;35568;48.104;11.782;2023-11-21T02:18:19;94837.93;;;7.43;50.82
48156;BME280;35568;48.104;11.782;2023-11-21T02:20:45;94836.00;;;7.42;51.02
48156;BME280;35568;48.104;11.782;2023-11-21T02:23:12;94836.02;;;7.47;51.04
48156;BME280;35568;48.104;11.782;2023-11-21T02:25:39;94840.44;;;7.68;50.45
48156;BME280;35568;48.104;11.782;2023-11-21T02:28:06;94839.53;;;7.87;50.69
48156;BME280;35568;48.104;11.782;2023-11-21T02:30:33;94838.02;;;8.04;50.49
48156;BME280;35568;48.104;11.782;2023-11-21T02:33:00;94839.68;;;8.13;50.41
48156;BME280;35568;48.104;11.782;2023-11-21T02:35:27;94838.84;;;8.12;50.25
48156;BME280;35568;48.104;11.782;2023-11-21T02:37:55;94835.67;;;7.61;50.43
48156;BME280;35568;48.104;11.782;2023-11-21T02:40:22;94833.28;;;7.35;50.63
48156;BME280;35568;48.104;11.782;2023-11-21T02:42:49;94839.12;;;7.12;51.18
48156;BME280;35568;48.104;11.782;2023-11-21T02:45:18;94842.44;;;7.48;51.23
48156;BME280;35568;48.104;11.782;2023-11-21T02:47:46;94845.19;;;7.53;51.11
48156;BME280;35568;48.104;11.782;2023-11-21T02:50:13;94850.31;;;7.30;51.00
48156;BME280;35568;48.104;11.782;2023-11-21T02:52:40;94848.40;;;7.30;51.35
48156;BME280;35568;48.104;11.782;2023-11-21T02:55:07;94848.16;;;7.39;51.97
48156;BME280;35568;48.104;11.782;2023-11-21T02:57:35;94851.27;;;7.54;51.80
48156;BME280;35568;48.104;11.782;2023-11-21T03:00:02;94855.38;;;7.49;52.16
48156;BME280;35568;48.104;11.782;2023-11-21T03:02:30;94854.19;;;7.36;52.75
48156;BME280;35568;48.104;11.782;2023-11-21T03:04:56;94851.36;;;7.46;52.88
48156;BME280;35568;48.104;11.782;2023-11-21T03:07:23;94852.51;;;7.20;53.61
48156;BME280;35568;48.104;11.782;2023-11-21T03:09:50;94848.88;;;7.27;53.81
48156;BME280;35568;48.104;11.782;2023-11-21T03:12:17;94845.20;;;6.92;53.73
48156;BME280;35568;48.104;11.782;2023-11-21T03:14:44;94838.53;;;6.94;54.09
48156;BME280;35568;48.104;11.782;2023-11-21T03:17:12;94838.18;;;6.73;54.27
48156;BME280;35568;48.104;11.782;2023-11-21T03:19:41;94835.23;;;7.04;54.17
48156;BME280;35568;48.104;11.782;2023-11-21T03:22:08;94832.57;;;6.98;54.13
48156;BME280;35568;48.104;11.782;2023-11-21T03:24:36;94830.36;;;6.85;54.31
48156;BME280;35568;48.104;11.782;2023-11-21T03:27:04;94826.11;;;6.93;54.41
48156;BME280;35568;48.104;11.782;2023-11-21T03:29:31;94822.01;;;7.26;54.11
48156;BME280;35568;48.104;11.782;2023-11-21T03:31:59;94817.49;;;7.26;54.06
48156;BME280;35568;48.104;11.782;2023-11-21T03:34:27;94820.45;;;7.14;54.29
48156;BME280;35568;48.104;11.782;2023-11-21T03:36:55;94821.90;;;7.14;54.04
48156;BME280;35568;48.104;11.782;2023-11-21T03:39:23;94823.89;;;7.08;54.00
48156;BME280;35568;48.104;11.782;2023-11-21T03:41:50;94823.36;;;7.08;54.32
48156;BME280;35568;48.104;11.782;2023-11-21T03:44:18;94821.23;;;7.08;54.09
48156;BME280;35568;48.104;11.782;2023-11-21T03:46:45;94823.43;;;7.35;54.59
48156;BME280;35568;48.104;11.782;2023-11-21T03:49:13;94824.59;;;7.07;54.52
48156;BME280;35568;48.104;11.782;2023-11-21T03:51:40;94825.50;;;7.00;54.43
48156;BME280;35568;48.104;11.782;2023-11-21T03:54:08;94827.61;;;7.38;54.23
48156;BME280;35568;48.104;11.782;2023-11-21T03:56:35;94826.92;;;6.73;54.72
48156;BME280;35568;48.104;11.782;2023-11-21T03:59:02;94823.42;;;6.90;54.73
48156;BME280;35568;48.104;11.782;2023-11-21T04:03:01;94820.48;;;7.66;54.08
48156;BME280;35568;48.104;11.782;2023-11-21T04:05:28;94821.78;;;6.86;55.17
48156;BME280;35568;48.104;11.782;2023-11-21T04:07:55;94820.35;;;6.68;55.48
48156;BME280;35568;48.104;11.782;2023-11-21T04:10:23;94819.89;;;6.84;55.97
48156;BME280;35568;48.104;11.782;2023-11-21T04:12:50;94820.18;;;6.89;56.10
48156;BME280;35568;48.104;11.782;2023-11-21T04:15:17;94819.84;;;6.68;56.30
48156;BME280;35568;48.104;11.782;2023-11-21T04:17:44;94818.84;;;6.82;56.50
48156;BME280;35568;48.104;11.782;2023-11-21T04:20:11;94820.49;;;6.58;56.52
48156;BME280;35568;48.104;11.782;2023-11-21T04:22:39;94818.35;;;6.26;56.61
48156;BME280;35568;48.104;11.782;2023-11-21T04:25:08;94821.62;;;6.42;56.76
48156;BME280;35568;48.104;11.782;2023-11-21T04:27:37;94822.47;;;6.40;56.81
48156;BME280;35568;48.104;11.782;2023-11-21T04:30:06;94823.05;;;6.37;56.87
48156;BME280;35568;48.104;11.782;2023-11-21T04:32:34;94825.47;;;6.34;57.09
48156;BME280;35568;48.104;11.782;2023-11-21T04:35:01;94823.54;;;6.60;57.19
48156;BME280;35568;48.104;11.782;2023-11-21T04:37:29;94825.90;;;6.54;56.83
48156;BME280;35568;48.104;11.782;2023-11-21T04:39:56;94828.57;;;6.93;56.55
48156;BME280;35568;48.104;11.782;2023-11-21T04:42:23;94824.12;;;7.04;56.42
48156;BME280;35568;48.104;11.782;2023-11-21T04:44:50;94826.24;;;7.12;56.24
48156;BME280;35568;48.104;11.782;2023-11-21T04:47:17;94826.19;;;6.63;56.53
48156;BME280;35568;48.104;11.782;2023-11-21T04:49:46;94826.21;;;6.80;56.04
48156;BME280;35568;48.104;11.782;2023-11-21T04:52:13;94830.31;;;6.74;56.13
48156;BME280;35568;48.104;11.782;2023-11-21T04:54:40;94827.08;;;6.92;56.00
48156;BME280;35568;48.104;11.782;2023-11-21T04:57:07;94822.36;;;6.53;56.25
48156;BME280;35568;48.104;11.782;2023-11-21T04:59:34;94823.02;;;6.67;56.27
48156;BME280;35568;48.104;11.782;2023-11-21T05:02:01;94824.03;;;6.77;56.68
48156;BME280;35568;48.104;11.782;2023-11-21T05:04:29;94825.75;;;6.75;56.87
48156;BME280;35568;48.104;11.782;2023-11-21T05:06:56;94828.77;;;6.82;56.64
48156;BME280;35568;48.104;11.782;2023-11-21T05:09:22;94826.59;;;6.50;56.33
48156;BME280;35568;48.104;11.782;2023-11-21T05:11:49;94828.39;;;6.54;56.01
48156;BME280;35568;48.104;11.782;2023-11-21T05:14:16;94831.91;;;6.40;55.72
48156;BME280;35568;48.104;11.782;2023-11-21T05:16:44;94833.38;;;6.99;55.10
48156;BME280;35568;48.104;11.782;2023-11-21T05:19:12;94837.31;;;6.90;54.77
48156;BME280;35568;48.104;11.782;2023-11-21T05:21:39;94836.34;;;6.91;54.48
48156;BME280;35568;48.104;11.782;2023-11-21T05:24:07;94838.44;;;6.75;54.75
48156;BME280;35568;48.104;11.782;2023-11-21T05:26:34;94841.14;;;6.71;54.64
48156;BME280;35568;48.104;11.782;2023-11-21T05:29:02;94841.61;;;6.90;54.45
48156;BME280;35568;48.104;11.782;2023-11-21T05:31:30;94837.38;;;7.08;54.48
48156;BME280;35568;48.104;11.782;2023-11-21T05:33:57;94839.22;;;6.90;54.32
48156;BME280;35568;48.104;11.782;2023-11-21T05:36:23;94841.28;;;6.95;54.10
48156;BME280;35568;48.104;11.782;2023-11-21T05:38:51;94841.48;;;7.09;54.01
48156;BME280;35568;48.104;11.782;2023-11-21T05:41:19;94846.76;;;7.36;54.14
48156;BME280;35568;48.104;11.782;2023-11-21T05:43:46;94844.60;;;6.86;54.37
48156;BME280;35568;48.104;11.782;2023-11-21T05:46:13;94847.60;;;6.91;53.94
48156;BME280;35568;48.104;11.782;2023-11-21T05:48:40;94847.35;;;7.19;53.94
48156;BME280;35568;48.104;11.782;2023-11-21T05:51:07;94849.97;;;6.82;53.91
48156;BME280;35568;48.104;11.782;2023-11-21T05:53:35;94853.35;;;6.99;53.88
48156;BME280;35568;48.104;11.782;2023-11-21T05:56:02;94853.55;;;7.28;53.79
48156;BME280;35568;48.104;11.782;2023-11-21T05:58:29;94861.35;;;7.19;53.89
48156;BME280;35568;48.104;11.782;2023-11-21T06:00:57;94863.79;;;7.18;53.97
48156;BME280;35568;48.104;11.782;2023-11-21T06:03:24;94865.01;;;7.30;53.50
48156;BME280;35568;48.104;11.782;2023-11-21T06:05:52;94863.70;;;7.68;53.64
48156;BME280;35568;48.104;11.782;2023-11-21T06:08:20;94863.53;;;7.37;53.57
48156;BME280;35568;48.104;11.782;2023-11-21T06:10:47;94860.94;;;7.27;53.54
48156;BME280;35568;48.104;11.782;2023-11-21T06:13:13;94859.08;;;7.03;53.98
48156;BME280;35568;48.104;11.782;2023-11-21T06:15:40;94857.95;;;6.91;54.31
48156;BME280;35568;48.104;11.782;2023-11-21T06:18:07;94862.51;;;7.02;54.31
48156;BME280;35568;48.104;11.782;2023-11-21T06:20:34;94864.46;;;6.41;54.51
48156;BME280;35568;48.104;11.782;2023-11-21T06:23:01;94866.76;;;7.02;54.25
48156;BME280;35568;48.104;11.782;2023-11-21T06:25:28;94869.47;;;7.11;54.08
48156;BME280;35568;48.104;11.782;2023-11-21T06:27:56;94878.44;;;7.01;54.24
48156;BME280;35568;48.104;11.782;2023-11-21T06:30:23;94882.33;;;7.32;54.19
48156;BME280;35568;48.104;11.782;2023-11-21T06:32:49;94888.80;;;7.22;53.98
48156;BME280;35568;48.104;11.782;2023-11-21T06:35:16;94890.56;;;7.34;54.03
48156;BME280;35568;48.104;11.782;2023-11-21T06:37:44;94891.86;;;7.76;53.59
48156;BME280;35568;48.104;11.782;2023-11-21T06:40:11;94894.40;;;7.12;53.95
48156;BME280;35568;48.104;11.782;2023-11-21T06:42:39;94899.82;;;7.27;53.99
48156;BME280;35568;48.104;11.782;2023-11-21T06:45:07;94901.48;;;7.05;54.39
48156;BME280;35568;48.104;11.782;2023-11-21T06:47:34;94900.73;;;7.30;54.45
48156;BME280;35568;48.104;11.782;2023-11-21T06:50:01;94902.80;;;7.28;54.10
48156;BME280;35568;48.104;11.782;2023-11-21T06:52:27;94905.22;;;7.36;54.45
48156;BME280;35568;48.104;11.782;2023-11-21T06:54:54;94909.54;;;7.23;54.14
48156;BME280;35568;48.104;11.782;2023-11-21T06:57:23;94910.45;;;7.30;53.99
48156;BME280;35568;48.104;11.782;2023-11-21T06:59:51;94909.79;;;7.25;53.95
48156;BME280;35568;48.104;11.782;2023-11-21T07:02:17;94910.40;;;7.18;54.18
48156;BME280;35568;48.104;11.782;2023-11-21T07:04:45;94909.26;;;7.08;54.29
48156;BME280;35568;48.104;11.782;2023-11-21T07:07:12;94912.30;;;7.31;54.09
48156;BME280;35568;48.104;11.782;2023-11-21T07:09:40;94912.99;;;7.25;53.98
48156;BME280;35568;48.104;11.782;2023-11-21T07:12:07;94912.70;;;6.93;54.14
48156;BME280;35568;48.104;11.782;2023-11-21T07:14:34;94918.58;;;7.20;53.98
48156;BME280;35568;48.104;11.782;2023-11-21T07:17:02;94922.33;;;7.47;53.36
48156;BME280;35568;48.104;11.782;2023-11-21T07:19:29;94921.32;;;7.45;53.42
48156;BME280;35568;48.104;11.782;2023-11-21T07:21:56;94921.92;;;7.29;53.70
48156;BME280;35568;48.104;11.782;2023-11-21T07:24:23;94922.32;;;7.26;53.74
48156;BME280;35568;48.104;11.782;2023-11-21T07:26:50;94924.82;;;7.17;53.84
48156;BME280;35568;48.104;11.782;2023-11-21T07:29:17;94924.28;;;7.13;53.92
48156;BME280;35568;48.104;11.782;2023-11-21T07:31:43;94927.30;;;7.18;53.64
48156;BME280;35568;48.104;11.782;2023-11-21T07:34:10;94931.21;;;7.19;53.77
48156;BME280;35568;48.104;11.782;2023-11-21T07:36:37;94932.76;;;7.42;53.35
48156;BME280;35568;48.104;11.782;2023-11-21T07:39:04;94935.23;;;7.51;53.27
48156;BME280;35568;48.104;11.782;2023-11-21T07:41:31;94939.45;;;7.57;53.23
48156;BME280;35568;48.104;11.782;2023-11-21T07:43:58;94941.48;;;7.71;52.89
48156;BME280;35568;48.104;11.782;2023-11-21T07:46:25;94942.03;;;7.83;52.65
48156;BME280;35568;48.104;11.782;2023-11-21T07:48:52;94944.30;;;7.79;52.76
48156;BME280;35568;48.104;11.782;2023-11-21T07:51:19;94941.59;;;7.70;52.73
48156;BME280;35568;48.104;11.782;2023-11-21T07:53:46;94941.35;;;7.79;52.63
48156;BME280;35568;48.104;11.782;2023-11-21T07:56:12;94940.83;;;8.04;52.24
48156;BME280;35568;48.104;11.782;2023-11-21T07:58:40;94936.50;;;7.75;52.03
48156;BME280;35568;48.104;11.782;2023-11-21T08:01:07;94936.01;;;7.93;52.48
48156;BME280;35568;48.104;11.782;2023-11-21T08:03:34;94936.27;;;8.08;52.25
48156;BME280;35568;48.104;11.782;2023-11-21T08:06:01;94933.95;;;8.07;51.46
48156;BME280;35568;48.104;11.782;2023-11-21T08:08:29;94933.22;;;8.34;51.24
48156;BME280;35568;48.104;11.782;2023-11-21T08:10:56;94935.24;;;8.52;51.22
48156;BME280;35568;48.104;11.782;2023-11-21T08:13:23;94934.91;;;8.65;51.07
48156;BME280;35568;48.104;11.782;2023-11-21T08:15:53;94936.61;;;8.30;50.49
48156;BME280;35568;48.104;11.782;2023-11-21T08:18:21;94936.96;;;8.32;50.46
48156;BME280;35568;48.104;11.782;2023-11-21T08:20:48;94937.30;;;8.28;50.31
48156;BME280;35568;48.104;11.782;2023-11-21T08:23:16;94935.90;;;8.13;50.17
48156;BME280;35568;48.104;11.782;2023-11-21T08:25:44;94934.92;;;8.38;50.28
48156;BME280;35568;48.104;11.782;2023-11-21T08:28:12;94935.21;;;8.37;50.43
48156;BME280;35568;48.104;11.782;2023-11-21T08:30:39;94931.33;;;8.34;50.51
48156;BME280;35568;48.104;11.782;2023-11-21T08:33:07;94931.80;;;8.47;50.60
48156;BME280;35568;48.104;11.782;2023-11-21T08:35:35;94935.53;;;8.63;50.03
48156;BME280;35568;48.104;11.782;2023-11-21T08:38:03;94935.46;;;8.65;49.98
48156;BME280;35568;48.104;11.782;2023-11-21T08:40:30;94932.44;;;8.74;49.99
48156;BME280;35568;48.104;11.782;2023-11-21T08:42:57;94930.48;;;8.45;49.73
48156;BME280;35568;48.104;11.782;2023-11-21T08:45:24;94929.70;;;8.43;49.96
48156;BME280;35568;48.104;11.782;2023-11-21T08:47:52;94929.94;;;8.51;49.80
48156;BME280;35568;48.104;11.782;2023-11-21T08:50:19;94926.30;;;8.80;49.72
48156;BME280;35568;48.104;11.782;2023-11-21T08:52:47;94931.05;;;8.63;49.99
48156;BME280;35568;48.104;11.782;2023-11-21T08:55:14;94933.48;;;8.27;49.80
48156;BME280;35568;48.104;11.782;2023-11-21T08:57:44;94937.45;;;8.27;49.66
48156;BME280;35568;48.104;11.782;2023-11-21T09:00:11;94941.40;;;8.51;49.91
48156;BME280;35568;48.104;11.782;2023-11-21T09:02:39;94948.07;;;8.31;50.21
48156;BME280;35568;48.104;11.782;2023-11-21T09:05:07;94948.10;;;8.66;49.37
48156;BME280;35568;48.104;11.782;2023-11-21T09:07:34;94950.61;;;8.87;49.31
48156;BME280;35568;48.104;11.782;2023-11-21T09:10:02;94954.94;;;8.71;49.18
48156;BME280;35568;48.104;11.782;2023-11-21T09:12:29;94956.03;;;8.98;48.79
48156;BME280;35568;48.104;11.782;2023-11-21T09:14:56;94960.41;;;9.35;48.79
48156;BME280;35568;48.104;11.782;2023-11-21T09:17:23;94961.31;;;9.21;48.56
48156;BME280;35568;48.104;11.782;2023-11-21T09:19:50;94969.91;;;8.72;48.83
48156;BME280;35568;48.104;11.782;2023-11-21T09:22:18;94972.61;;;9.50;48.35
48156;BME280;35568;48.104;11.782;2023-11-21T09:24:46;94975.94;;;9.17;48.16
48156;BME280;35568;48.104;11.782;2023-11-21T09:27:14;94980.66;;;9.20;48.41
48156;BME280;35568;48.104;11.782;2023-11-21T09:29:42;94981.34;;;9.47;48.25
48156;BME280;35568;48.104;11.782;2023-11-21T09:32:09;94985.28;;;9.30;48.53
48156;BME280;35568;48.104;11.782;2023-11-21T09:34:38;94983.96;;;9.23;48.39
48156;BME280;35568;48.104;11.782;2023-11-21T09:37:05;94980.40;;;9.28;48.54
48156;BME280;35568;48.104;11.782;2023-11-21T09:39:33;94981.25;;;9.54;47.26
48156;BME280;35568;48.104;11.782;2023-11-21T09:42:08;94981.10;;;9.53;48.13
48156;BME280;35568;48.104;11.782;2023-11-21T09:44:45;94980.10;;;9.18;47.91
48156;BME280;35568;48.104;11.782;2023-11-21T09:47:15;94980.26;;;9.44;47.54
48156;BME280;35568;48.104;11.782;2023-11-21T09:49:47;94978.50;;;9.62;47.52
48156;BME280;35568;48.104;11.782;2023-11-21T09:52:22;94976.23;;;9.45;46.87
48156;BME280;35568;48.104;11.782;2023-11-21T09:54:50;94973.66;;;9.94;47.67
48156;BME280;35568;48.104;11.782;2023-11-21T09:57:19;94973.49;;;9.65;46.52
48156;BME280;35568;48.104;11.782;2023-11-21T09:59:47;94971.47;;;9.68;46.67
48156;BME280;35568;48.104;11.782;2023-11-21T10:02:17;94970.95;;;10.04;46.60
48156;BME280;35568;48.104;11.782;2023-11-21T10:04:45;94968.34;;;9.85;46.58
48156;BME280;35568;48.104;11.782;2023-11-21T10:07:13;94967.10;;;9.71;46.76
48156;BME280;35568;48.104;11.782;2023-11-21T10:09:44;94963.25;;;10.07;46.78
48156;BME280;35568;48.104;11.782;2023-11-21T10:12:13;94964.57;;;10.40;46.47
48156;BME280;35568;48.104;11.782;2023-11-21T10:14:42;94966.03;;;10.99;45.44
48156;BME280;35568;48.104;11.782;2023-11-21T10:17:10;94963.89;;;11.01;45.70
48156;BME280;35568;48.104;11.782;2023-11-21T10:19:39;94966.96;;;11.32;44.69
48156;BME280;35568;48.104;11.782;2023-11-21T10:22:07;94967.23;;;11.02;44.26
48156;BME280;35568;48.104;11.782;2023-11-21T10:24:35;94972.30;;;10.55;44.38
48156;BME280;35568;48.104;11.782;2023-11-21T10:27:04;94973.63;;;10.67;45.14
48156;BME280;35568;48.104;11.782;2023-11-21T10:29:31;94970.78;;;10.71;45.32
48156;BME280;35568;48.104;11.782;2023-11-21T10:32:00;94971.27;;;10.34;45.54
48156;BME280;35568;48.104;11.782;2023-11-21T10:34:29;94970.31;;;10.44;45.26
48156;BME280;35568;48.104;11.782;2023-11-21T10:36:57;94969.58;;;10.18;44.94
48156;BME280;35568;48.104;11.782;2023-11-21T10:39:25;94965.77;;;10.41;45.02
48156;BME280;35568;48.104;11.782;2023-11-21T10:41:52;94970.14;;;10.55;45.37
48156;BME280;35568;48.104;11.782;2023-11-21T10:44:20;94969.98;;;10.56;45.60
48156;BME280;35568;48.104;11.782;2023-11-21T10:46:49;94969.39;;;10.48;44.99
48156;BME280;35568;48.104;11.782;2023-11-21T10:49:17;94972.93;;;11.00;44.33
48156;BME280;35568;48.104;11.782;2023-11-21T10:51:44;94970.82;;;11.06;44.76
48156;BME280;35568;48.104;11.782;2023-11-21T10:54:12;94972.03;;;10.88;44.31
48156;BME280;35568;48.104;11.782;2023-11-21T10:56:40;94970.94;;;11.14;43.54
48156;BME280;35568;48.104;11.782;2023-11-21T10:59:08;94972.22;;;11.09;44.35
48156;BME280;35568;48.104;11.782;2023-11-21T11:01:37;94973.04;;;11.13;44.45
48156;BME280;35568;48.104;11.782;2023-11-21T11:04:06;94970.88;;;11.18;44.38
48156;BME280;35568;48.104;11.782;2023-11-21T11:06:35;94973.52;;;11.32;43.43
48156;BME280;35568;48.104;11.782;2023-11-21T11:09:02;94966.74;;;11.41;43.64
48156;BME280;35568;48.104;11.782;2023-11-21T11:11:30;94967.38;;;11.26;44.10
48156;BME280;35568;48.104;11.782;2023-11-21T11:13:59;94968.65;;;11.07;44.30
48156;BME280;35568;48.104;11.782;2023-11-21T11:16:27;94967.09;;;11.36;44.04
48156;BME280;35568;48.104;11.782;2023-11-21T11:18:54;94963.70;;;11.81;43.70
48156;BME280;35568;48.104;11.782;2023-11-21T11:21:30;94964.12;;;11.89;43.14
48156;BME280;35568;48.104;11.782;2023-11-21T11:24:16;94963.60;;;11.66;43.71
48156;BME280;35568;48.104;11.782;2023-11-21T11:26:51;94967.81;;;11.74;42.92
48156;BME280;35568;48.104;11.782;2023-11-21T11:29:30;94964.45;;;11.56;43.05
48156;BME280;35568;48.104;11.782;2023-11-21T11:32:08;94962.61;;;11.01;43.28
48156;BME280;35568;48.104;11.782;2023-11-21T11:34:46;94963.04;;;11.07;44.11
48156;BME280;35568;48.104;11.782;2023-11-21T11:37:14;94963.44;;;11.35;44.58
48156;BME280;35568;48.104;11.782;2023-11-21T11:39:42;94963.11;;;10.92;44.59
48156;BME280;35568;48.104;11.782;2023-11-21T11:42:13;94962.42;;;10.82;44.42
48156;BME280;35568;48.104;11.782;2023-11-21T11:44:52;94959.07;;;10.70;44.74
48156;BME280;35568;48.104;11.782;2023-11-21T11:47:23;94959.37;;;11.05;44.61
48156;BME280;35568;48.104;11.782;2023-11-21T11:50:00;94955.95;;;10.83;44.46
48156;BME280;35568;48.104;11.782;2023-11-21T11:52:38;94954.12;;;11.24;43.50
48156;BME280;35568;48.104;11.782;2023-11-21T11:55:07;94950.45;;;11.27;43.65
48156;BME280;35568;48.104;11.782;2023-11-21T11:57:36;94948.89;;;11.59;43.26
48156;BME280;35568;48.104;11.782;2023-11-21T12:00:13;94947.22;;;12.01;43.20
48156;BME280;35568;48.104;11.782;2023-11-21T12:02:41;94948.09;;;11.96;43.29
48156;BME280;35568;48.104;11.782;2023-11-21T12:05:10;94949.66;;;11.41;42.79
48156;BME280;35568;48.104;11.782;2023-11-21T12:07:46;94950.26;;;11.76;42.95
48156;BME280;35568;48.104;11.782;2023-11-21T12:10:16;94951.87;;;11.33;43.05
48156;BME280;35568;48.104;11.782;2023-11-21T12:12:46;94952.18;;;11.12;43.71
48156;BME280;35568;48.104;11.782;2023-11-21T12:15:14;94952.61;;;11.17;43.95
48156;BME280;35568;48.104;11.782;2023-11-21T12:17:43;94952.31;;;11.14;44.16
48156;BME280;35568;48.104;11.782;2023-11-21T12:20:11;94953.41;;;11.08;44.53
48156;BME280;35568;48.104;11.782;2023-11-21T12:22:38;94955.69;;;11.36;44.33
48156;BME280;35568;48.104;11.782;2023-11-21T12:25:06;94952.47;;;11.15;43.94
48156;BME280;35568;48.104;11.782;2023-11-21T12:27:34;94954.13;;;11.03;44.43
48156;BME280;35568;48.104;11.782;2023-11-21T12:30:01;94955.63;;;10.98;44.66
48156;BME280;35568;48.104;11.782;2023-11-21T12:32:29;94952.92;;;11.32;44.21
48156;BME280;35568;48.104;11.782;2023-11-21T12:34:56;94956.09;;;10.01;44.05
48156;BME280;35568;48.104;11.782;2023-11-21T12:37:28;94955.47;;;11.30;43.63
48156;BME280;35568;48.104;11.782;2023-11-21T12:39:56;94954.32;;;11.46;43.41
48156;BME280;35568;48.104;11.782;2023-11-21T12:42:24;94956.87;;;11.25;43.27
48156;BME280;35568;48.104;11.782;2023-11-21T12:45:08;94956.42;;;11.37;43.56
48156;BME280;35568;48.104;11.782;2023-11-21T12:47:35;94954.49;;;11.14;44.48
48156;BME280;35568;48.104;11.782;2023-11-21T12:50:03;94956.90;;;11.21;43.56
48156;BME280;35568;48.104;11.782;2023-11-21T12:52:30;94958.50;;;11.19;43.56
48156;BME280;35568;48.104;11.782;2023-11-21T12:54:58;94959.13;;;11.05;43.56
48156;BME280;35568;48.104;11.782;2023-11-21T12:57:26;94961.50;;;10.95;43.74
48156;BME280;35568;48.104;11.782;2023-11-21T12:59:57;94960.54;;;11.11;43.71
48156;BME280;35568;48.104;11.782;2023-11-21T13:02:26;94961.05;;;11.29;43.89